createdAt,value
2018-02-14T00:00:30.675Z,9.90
2018-02-14T00:02:57.349Z,9.80
2018-02-14T00:05:24.722Z,10.55
2018-02-14T00:07:52.115Z,10.68
2018-02-14T00:10:18.791Z,10.15
2018-02-14T00:12:45.455Z,10.15
2018-02-14T00:15:12.801Z,10.93
2018-02-14T00:17:40.212Z,13.48
2018-02-14T00:20:06.830Z,12.50
2018-02-14T00:22:33.442Z,13.02
2018-02-14T00:25:00.076Z,11.05
2018-02-14T00:27:26.674Z,9.85
2018-02-14T00:29:53.333Z,10.25
2018-02-14T00:32:19.948Z,9.50
2018-02-14T00:34:46.583Z,9.43
2018-02-14T00:37:13.266Z,11.43
2018-02-14T00:39:39.881Z,10.07
2018-02-14T00:42:06.462Z,11.27
2018-02-14T00:44:33.150Z,11.45
2018-02-14T00:46:59.778Z,12.32
2018-02-14T00:49:26.377Z,12.40
2018-02-14T00:51:53.787Z,13.52
2018-02-14T00:54:20.395Z,14.05
2018-02-14T00:56:46.967Z,12.65
2018-02-14T00:59:13.561Z,12.63
2018-02-14T01:01:40.246Z,15.25
2018-02-14T01:04:06.890Z,13.85
2018-02-14T01:06:33.502Z,14.85
2018-02-14T01:09:00.177Z,13.40
2018-02-14T01:11:27.526Z,14.55
2018-02-14T01:13:54.133Z,14.25
2018-02-14T01:16:20.711Z,13.38
2018-02-14T01:18:48.038Z,13.10
2018-02-14T01:21:14.675Z,14.85
2018-02-14T01:23:41.295Z,16.45
2018-02-14T01:26:07.895Z,17.73
2018-02-14T01:28:34.481Z,15.68
2018-02-14T01:31:01.117Z,17.30
2018-02-14T01:33:27.743Z,15.20
2018-02-14T01:35:54.341Z,14.80
2018-02-14T01:38:20.954Z,14.07
2018-02-14T01:40:47.570Z,16.23
2018-02-14T01:43:14.176Z,19.95
2018-02-14T01:45:41.603Z,20.48
2018-02-14T01:48:08.230Z,14.02
2018-02-14T01:50:38.965Z,15.45
2018-02-14T01:53:06.354Z,16.25
2018-02-14T01:55:32.954Z,14.80
2018-02-14T01:57:59.875Z,13.43
2018-02-14T02:00:26.534Z,14.63
2018-02-14T02:02:53.192Z,15.13
2018-02-14T02:05:19.910Z,14.85
2018-02-14T02:07:47.263Z,13.98
2018-02-14T02:10:13.918Z,13.82
2018-02-14T02:12:40.538Z,13.23
2018-02-14T02:15:07.102Z,13.27
2018-02-14T02:17:33.727Z,12.98
2018-02-14T02:20:00.363Z,11.95
2018-02-14T02:22:26.998Z,12.15
2018-02-14T02:24:53.622Z,12.00
2018-02-14T02:27:20.234Z,13.00
2018-02-14T02:29:46.852Z,12.77
2018-02-14T02:32:13.459Z,12.63
2018-02-14T02:34:40.082Z,11.57
2018-02-14T02:37:06.702Z,12.27
2018-02-14T02:39:51.555Z,13.18
2018-02-14T02:42:19.085Z,11.52
2018-02-14T02:44:46.459Z,12.80
2018-02-14T02:47:13.149Z,12.40
2018-02-14T02:49:39.775Z,13.15
2018-02-14T02:52:06.455Z,11.90
2018-02-14T02:54:33.058Z,15.38
2018-02-14T02:57:00.399Z,16.20
2018-02-14T02:59:27.766Z,14.70
2018-02-14T03:01:54.421Z,14.13
2018-02-14T03:04:21.019Z,13.38
2018-02-14T03:06:47.669Z,17.55
2018-02-14T03:09:14.298Z,16.60
2018-02-14T03:11:41.639Z,16.98
2018-02-14T03:14:08.582Z,16.75
2018-02-14T03:16:35.140Z,16.83
2018-02-14T03:19:01.733Z,17.12
2018-02-14T03:21:29.103Z,16.50
2018-02-14T03:23:55.972Z,17.02
2018-02-14T03:26:22.610Z,15.90
2018-02-14T03:28:49.952Z,15.85
2018-02-14T03:31:16.653Z,16.90
2018-02-14T03:33:43.241Z,14.73
2018-02-14T03:36:10.582Z,16.12
2018-02-14T03:38:37.190Z,17.55
2018-02-14T03:41:03.959Z,15.05
2018-02-14T03:43:30.615Z,17.12
2018-02-14T03:45:57.961Z,17.73
2018-02-14T03:48:24.607Z,14.63
2018-02-14T03:50:51.944Z,15.13
2018-02-14T03:53:18.535Z,16.85
2018-02-14T03:55:45.131Z,19.60
2018-02-14T03:58:12.487Z,17.75
2018-02-14T04:00:39.086Z,14.85
2018-02-14T04:03:06.493Z,14.68
2018-02-14T04:05:33.086Z,14.90
2018-02-14T04:07:59.701Z,13.40
2018-02-14T04:10:26.299Z,14.10
2018-02-14T04:12:52.909Z,15.57
2018-02-14T04:15:19.502Z,14.68
2018-02-14T04:17:46.117Z,15.75
2018-02-14T04:20:12.690Z,16.12
2018-02-14T04:22:39.290Z,16.05
2018-02-14T04:25:05.930Z,15.88
2018-02-14T04:27:32.703Z,15.73
2018-02-14T04:29:59.318Z,17.10
2018-02-14T04:32:25.922Z,16.52
2018-02-14T04:34:53.246Z,18.05
2018-02-14T04:37:19.847Z,18.27
2018-02-14T04:39:46.503Z,19.77
2018-02-14T04:42:13.131Z,19.27
2018-02-14T04:44:39.902Z,17.65
2018-02-14T04:47:06.566Z,17.40
2018-02-14T04:49:33.896Z,18.42
2018-02-14T04:52:01.281Z,20.23
2018-02-14T04:54:27.881Z,19.87
2018-02-14T04:56:54.536Z,18.50
2018-02-14T04:59:21.286Z,19.33
2018-02-14T05:01:48.646Z,18.10
2018-02-14T05:04:15.237Z,18.70
2018-02-14T05:06:41.873Z,16.73
2018-02-14T05:09:08.480Z,15.90
2018-02-14T05:11:35.133Z,16.20
2018-02-14T05:14:01.731Z,15.50
2018-02-14T05:16:28.392Z,15.13
2018-02-14T05:18:54.985Z,15.43
2018-02-14T05:21:21.724Z,15.55
2018-02-14T05:23:48.343Z,14.75
2018-02-14T05:26:15.723Z,18.98
2018-02-14T05:28:42.387Z,17.02
2018-02-14T05:31:09.008Z,19.05
2018-02-14T05:33:36.399Z,16.30
2018-02-14T05:36:03.042Z,18.60
2018-02-14T05:38:29.670Z,18.87
2018-02-14T05:40:56.311Z,17.00
2018-02-14T05:43:22.930Z,17.25
2018-02-14T05:45:49.578Z,18.80
2018-02-14T05:48:16.150Z,17.98
2018-02-14T05:50:42.746Z,20.15
2018-02-14T05:53:09.372Z,19.35
2018-02-14T05:55:35.996Z,20.62
2018-02-14T05:58:03.375Z,19.67
2018-02-14T06:00:30.076Z,20.80
2018-02-14T06:02:56.695Z,16.90
2018-02-14T06:05:23.339Z,18.27
2018-02-14T06:07:49.939Z,17.20
2018-02-14T06:10:16.566Z,15.77
2018-02-14T06:12:43.883Z,16.92
2018-02-14T06:15:11.249Z,16.65
2018-02-14T06:17:38.624Z,16.90
2018-02-14T06:20:05.241Z,17.20
2018-02-14T06:22:31.863Z,16.60
2018-02-14T06:24:59.256Z,16.65
2018-02-14T06:27:25.900Z,18.92
2018-02-14T06:29:52.910Z,17.45
2018-02-14T06:32:19.586Z,19.70
2018-02-14T06:34:46.200Z,18.75
2018-02-14T06:37:13.568Z,18.35
2018-02-14T06:39:40.218Z,18.37
2018-02-14T06:42:06.919Z,17.37
2018-02-14T06:44:33.574Z,18.87
2018-02-14T06:47:00.330Z,17.10
2018-02-14T06:49:26.933Z,18.00
2018-02-14T06:51:53.637Z,17.42
2018-02-14T06:54:20.249Z,17.15
2018-02-14T06:56:46.859Z,20.88
2018-02-14T06:59:14.251Z,20.73
2018-02-14T07:01:40.923Z,20.10
2018-02-14T07:04:07.522Z,19.00
2018-02-14T07:06:34.218Z,20.50
2018-02-14T07:09:01.729Z,16.92
2018-02-14T07:11:28.387Z,17.48
2018-02-14T07:13:55.106Z,19.92
2018-02-14T07:16:22.158Z,18.15
2018-02-14T07:18:48.905Z,18.50
2018-02-14T07:21:15.690Z,18.00
2018-02-14T07:23:42.468Z,17.12
2018-02-14T07:26:09.123Z,16.10
2018-02-14T07:28:35.795Z,22.35
2018-02-14T07:31:02.397Z,21.15
2018-02-14T07:33:29.049Z,17.05
2018-02-14T07:35:55.678Z,17.17
2018-02-14T07:38:22.293Z,17.85
2018-02-14T07:40:48.974Z,16.33
2018-02-14T07:43:15.642Z,16.35
2018-02-14T07:45:43.022Z,19.30
2018-02-14T07:48:09.671Z,17.98
2018-02-14T07:50:37.062Z,16.65
2018-02-14T07:53:03.724Z,15.80
2018-02-14T07:55:30.369Z,15.90
2018-02-14T07:57:56.978Z,15.40
2018-02-14T08:00:24.334Z,16.15
2018-02-14T08:02:50.978Z,17.33
2018-02-14T08:05:17.567Z,16.50
2018-02-14T08:07:44.152Z,16.27
2018-02-14T08:10:10.827Z,16.30
2018-02-14T08:12:37.426Z,13.90
2018-02-14T08:15:04.803Z,14.98
2018-02-14T08:17:31.430Z,12.13
2018-02-14T08:19:58.764Z,13.73
2018-02-14T08:22:25.388Z,11.70
2018-02-14T08:24:52.011Z,12.15
2018-02-14T08:27:18.655Z,16.40
2018-02-14T08:29:45.236Z,13.80
2018-02-14T08:32:11.907Z,12.50
2018-02-14T08:34:38.592Z,13.57
2018-02-14T08:37:05.354Z,12.05
2018-02-14T08:39:32.728Z,13.73
2018-02-14T08:41:59.496Z,13.07
2018-02-14T08:44:26.071Z,14.80
2018-02-14T08:46:52.693Z,13.15
2018-02-14T08:49:19.307Z,11.82
2018-02-14T08:51:45.910Z,13.55
2018-02-14T08:54:13.260Z,14.35
2018-02-14T08:56:39.830Z,14.20
2018-02-14T08:59:06.434Z,14.45
2018-02-14T09:01:32.991Z,14.65
2018-02-14T09:03:59.610Z,12.37
2018-02-14T09:06:26.188Z,12.40
2018-02-14T09:08:52.797Z,15.20
2018-02-14T09:11:19.386Z,19.90
2018-02-14T09:13:46.714Z,19.85
2018-02-14T09:16:15.088Z,16.65
2018-02-14T09:18:41.706Z,19.25
2018-02-14T09:21:08.317Z,16.62
2018-02-14T09:23:34.951Z,13.57
2018-02-14T09:26:02.311Z,12.15
2018-02-14T09:28:28.995Z,14.85
2018-02-14T09:30:55.612Z,17.60
2018-02-14T09:33:22.208Z,23.45
2018-02-14T09:35:49.650Z,22.35
2018-02-14T09:38:16.223Z,15.90
2018-02-14T09:40:42.859Z,14.48
2018-02-14T09:43:09.462Z,14.98
2018-02-14T09:45:36.074Z,14.50
2018-02-14T09:48:02.725Z,12.90
2018-02-14T09:50:29.330Z,13.82
2018-02-14T09:52:56.274Z,11.45
2018-02-14T09:55:22.937Z,14.45
2018-02-14T09:57:49.513Z,13.73
2018-02-14T10:00:16.168Z,16.75
2018-02-14T10:02:42.783Z,18.62
2018-02-14T10:05:10.179Z,15.15
2018-02-14T10:07:36.741Z,12.05
2018-02-14T10:10:03.335Z,12.30
2018-02-14T10:12:30.066Z,14.55
2018-02-14T10:14:57.402Z,13.27
2018-02-14T10:17:24.727Z,11.70
2018-02-14T10:19:52.121Z,12.77
2018-02-14T10:22:19.459Z,11.65
2018-02-14T10:24:46.077Z,13.05
2018-02-14T10:27:12.646Z,12.37
2018-02-14T10:29:40.233Z,12.82
2018-02-14T10:32:06.843Z,12.80
2018-02-14T10:34:34.195Z,14.55
2018-02-14T10:37:01.535Z,13.75
2018-02-14T10:39:28.110Z,12.77
2018-02-14T10:41:54.806Z,14.80
2018-02-14T10:44:21.437Z,15.48
2018-02-14T10:46:48.050Z,14.60
2018-02-14T10:49:14.653Z,14.60
2018-02-14T10:51:41.262Z,15.38
2018-02-14T10:54:07.922Z,15.30
2018-02-14T10:56:34.532Z,15.43
2018-02-14T10:59:01.145Z,14.35
2018-02-14T11:01:33.755Z,18.73
2018-02-14T11:06:53.745Z,13.13
2018-02-14T11:09:20.333Z,13.90
2018-02-14T11:11:46.991Z,13.50
2018-02-14T11:14:13.710Z,11.95
2018-02-14T11:16:40.310Z,14.38
2018-02-14T11:19:06.982Z,16.08
2018-02-14T11:21:33.618Z,24.67
2018-02-14T11:24:00.203Z,17.30
2018-02-14T11:26:26.830Z,17.12
2018-02-14T11:28:53.425Z,18.20
2018-02-14T11:31:20.124Z,19.92
2018-02-14T11:33:46.786Z,17.30
2018-02-14T11:36:13.375Z,17.62
2018-02-14T11:38:39.994Z,18.48
2018-02-14T11:41:06.596Z,19.00
2018-02-14T11:43:33.200Z,15.88
2018-02-14T11:45:59.837Z,16.75
2018-02-14T11:48:26.450Z,15.10
2018-02-14T11:50:53.038Z,12.70
2018-02-14T11:53:19.723Z,11.70
2018-02-14T11:55:46.317Z,10.50
2018-02-14T11:58:12.950Z,10.73
2018-02-14T12:00:39.645Z,10.00
2018-02-14T12:03:06.385Z,9.57
2018-02-14T12:05:32.951Z,11.40
2018-02-14T12:08:00.321Z,11.55
2018-02-14T12:10:27.650Z,12.00
2018-02-14T12:12:54.319Z,11.12
2018-02-14T12:15:20.950Z,10.65
2018-02-14T12:17:48.298Z,12.35
2018-02-14T12:20:14.954Z,11.70
2018-02-14T12:22:41.571Z,11.52
2018-02-14T12:25:09.067Z,11.48
2018-02-14T12:27:35.783Z,12.02
2018-02-14T12:30:02.523Z,11.05
2018-02-14T12:32:29.112Z,11.30
2018-02-14T12:34:55.687Z,10.75
2018-02-14T12:37:23.178Z,10.13
2018-02-14T12:39:49.795Z,9.73
2018-02-14T12:42:16.414Z,9.52
2018-02-14T12:44:43.048Z,7.97
2018-02-14T12:47:09.640Z,7.65
2018-02-14T12:49:36.296Z,7.80
2018-02-14T12:52:02.928Z,6.28
2018-02-14T12:54:30.317Z,6.45
2018-02-14T12:56:57.716Z,6.75
2018-02-14T12:59:24.373Z,6.75
2018-02-14T13:01:51.119Z,8.27
2018-02-14T13:04:17.754Z,7.75
2018-02-14T13:06:44.374Z,9.65
2018-02-14T13:09:11.020Z,8.90
2018-02-14T13:11:37.792Z,8.68
2018-02-14T13:14:04.370Z,9.88
2018-02-14T13:16:30.988Z,9.43
2018-02-14T13:18:58.343Z,10.60
2018-02-14T13:21:25.702Z,12.57
2018-02-14T13:23:52.313Z,11.05
2018-02-14T13:26:18.978Z,12.77
2018-02-14T13:28:45.626Z,11.40
2018-02-14T13:31:12.258Z,10.25
2018-02-14T13:33:38.858Z,12.50
2018-02-14T13:36:05.492Z,13.77
2018-02-14T13:38:32.095Z,16.75
2018-02-14T13:40:58.669Z,13.85
2018-02-14T13:43:26.055Z,16.65
2018-02-14T13:45:53.419Z,14.05
2018-02-14T13:48:21.156Z,14.60
2018-02-14T13:50:48.496Z,16.10
2018-02-14T13:53:15.913Z,14.95
2018-02-14T13:55:42.539Z,19.35
2018-02-14T13:58:09.113Z,12.65
2018-02-14T14:00:35.812Z,12.65
2018-02-14T14:03:02.430Z,16.67
2018-02-14T14:05:29.857Z,12.50
2018-02-14T14:07:56.559Z,14.25
2018-02-14T14:10:23.199Z,11.07
2018-02-14T14:12:49.799Z,9.70
2018-02-14T14:15:16.459Z,9.40
2018-02-14T14:17:43.114Z,8.20
2018-02-14T14:20:09.738Z,11.70
2018-02-14T14:22:37.170Z,10.45
2018-02-14T14:25:04.491Z,10.10
2018-02-14T14:27:31.082Z,11.65
2018-02-14T14:29:57.686Z,10.60
2018-02-14T14:32:24.290Z,10.45
2018-02-14T14:34:50.866Z,11.40
2018-02-14T14:37:17.558Z,10.38
2018-02-14T14:39:44.168Z,10.73
2018-02-14T14:42:10.851Z,9.77
2018-02-14T14:44:37.419Z,10.48
2018-02-14T14:47:04.739Z,10.35
2018-02-14T14:49:31.557Z,11.45
2018-02-14T14:51:58.170Z,11.07
2018-02-14T14:54:24.740Z,8.27
2018-02-14T14:56:51.394Z,7.93
2018-02-14T14:59:17.984Z,7.47
2018-02-14T15:01:44.582Z,8.75
2018-02-14T15:04:11.934Z,11.63
2018-02-14T15:06:38.542Z,10.45
2018-02-14T15:09:05.149Z,11.30
2018-02-14T15:11:31.734Z,9.60
2018-02-14T15:13:58.362Z,10.00
2018-02-14T15:16:25.026Z,12.50
2018-02-14T15:18:51.617Z,14.20
2018-02-14T15:21:18.207Z,15.68
2018-02-14T15:23:44.824Z,13.45
2018-02-14T15:26:12.243Z,12.25
2018-02-14T15:28:38.968Z,10.50
2018-02-14T15:31:05.582Z,10.77
2018-02-14T15:33:32.914Z,10.02
2018-02-14T15:35:59.555Z,9.63
2018-02-14T15:38:26.162Z,9.57
2018-02-14T15:40:52.890Z,9.05
2018-02-14T15:43:19.501Z,10.25
2018-02-14T15:45:46.103Z,9.50
2018-02-14T15:48:12.700Z,8.93
2018-02-14T15:50:39.309Z,10.60
2018-02-14T15:53:05.904Z,10.20
2018-02-14T15:55:32.503Z,11.52
2018-02-14T15:57:59.125Z,12.85
2018-02-14T16:00:25.718Z,10.32
2018-02-14T16:02:52.343Z,12.93
2018-02-14T16:05:18.943Z,15.57
2018-02-14T16:07:45.541Z,15.38
2018-02-14T16:10:12.956Z,15.55
2018-02-14T16:12:39.600Z,11.07
2018-02-14T16:15:06.228Z,12.35
2018-02-14T16:17:32.885Z,10.95
2018-02-14T16:19:59.464Z,11.25
2018-02-14T16:22:26.846Z,11.98
2018-02-14T16:24:53.427Z,13.30
2018-02-14T16:27:20.022Z,14.13
2018-02-14T16:29:46.610Z,13.27
2018-02-14T16:32:14.030Z,13.40
2018-02-14T16:34:40.645Z,14.70
2018-02-14T16:37:07.267Z,14.70
2018-02-14T16:39:33.907Z,15.57
2018-02-14T16:42:00.525Z,17.67
2018-02-14T16:44:27.851Z,16.48
2018-02-14T16:46:54.591Z,14.43
2018-02-14T16:49:22.675Z,17.65
2018-02-14T16:51:50.019Z,23.05
2018-02-14T16:54:16.625Z,20.20
2018-02-14T16:56:43.209Z,23.00
2018-02-14T16:59:10.553Z,24.70
2018-02-14T17:01:37.881Z,19.27
2018-02-14T17:04:04.522Z,16.25
2018-02-14T17:06:31.155Z,18.90
2018-02-14T17:08:57.790Z,16.10
2018-02-14T17:11:24.366Z,14.85
2018-02-14T17:13:51.981Z,17.02
2018-02-14T17:16:18.637Z,18.37
2018-02-14T17:18:45.243Z,16.50
2018-02-14T17:21:11.853Z,17.45
2018-02-14T17:23:39.190Z,17.08
2018-02-14T17:26:06.614Z,14.68
2018-02-14T17:28:33.254Z,16.08
2018-02-14T17:30:59.912Z,18.60
2018-02-14T17:33:26.506Z,20.00
2018-02-14T17:35:53.116Z,19.23
2018-02-14T17:38:19.708Z,16.20
2018-02-14T17:40:46.336Z,21.20
2018-02-14T17:43:12.981Z,19.25
2018-02-14T17:45:39.574Z,16.90
2018-02-14T17:48:06.175Z,15.73
2018-02-14T17:50:32.820Z,14.65
2018-02-14T17:53:00.169Z,16.40
2018-02-14T17:55:27.502Z,15.20
2018-02-14T17:57:54.110Z,21.27
2018-02-14T18:00:20.768Z,16.87
2018-02-14T18:02:47.373Z,16.42
2018-02-14T18:05:13.974Z,14.73
2018-02-14T18:07:41.330Z,13.82
2018-02-14T18:10:08.000Z,14.85
2018-02-14T18:12:34.645Z,13.05
2018-02-14T18:15:01.241Z,13.20
2018-02-14T18:17:27.892Z,12.75
2018-02-14T18:19:55.270Z,13.18
2018-02-14T18:22:21.877Z,13.80
2018-02-14T18:24:49.244Z,12.65
2018-02-14T18:27:15.835Z,13.10
2018-02-14T18:29:42.446Z,13.98
2018-02-14T18:32:09.060Z,13.10
2018-02-14T18:34:35.651Z,13.55
2018-02-14T18:37:02.314Z,18.67
2018-02-14T18:39:29.631Z,14.27
2018-02-14T18:41:56.285Z,20.17
2018-02-14T18:44:22.878Z,17.12
2018-02-14T18:46:49.486Z,14.77
2018-02-14T18:49:16.126Z,14.00
2018-02-14T18:51:43.026Z,15.27
2018-02-14T18:54:09.646Z,13.20
2018-02-14T18:56:36.252Z,13.50
2018-02-14T18:59:03.631Z,16.55
2018-02-14T19:01:30.250Z,15.50
2018-02-14T19:03:56.882Z,15.13
2018-02-14T19:06:23.501Z,15.32
2018-02-14T19:08:50.102Z,18.50
2018-02-14T19:11:17.036Z,17.48
2018-02-14T19:13:43.720Z,19.33
2018-02-14T19:16:10.364Z,18.35
2018-02-14T19:18:36.986Z,17.10
2018-02-14T19:21:04.712Z,15.20
2018-02-14T19:23:32.302Z,15.43
2018-02-14T19:25:58.917Z,16.00
2018-02-14T19:28:25.531Z,16.37
2018-02-14T19:30:52.231Z,19.17
2018-02-14T19:33:18.862Z,20.70
2018-02-14T19:35:46.250Z,18.25
2018-02-14T19:38:12.950Z,19.37
2018-02-14T19:40:39.601Z,19.85
2018-02-14T19:43:06.476Z,16.75
2018-02-14T19:45:33.122Z,19.23
2018-02-14T19:47:59.756Z,15.57
2018-02-14T19:50:26.482Z,17.48
2018-02-14T19:52:53.117Z,17.60
2018-02-14T19:55:19.766Z,16.00
2018-02-14T19:57:46.393Z,15.95
2018-02-14T20:00:13.064Z,18.00
2018-02-14T20:02:39.726Z,14.85
2018-02-14T20:05:06.517Z,15.98
2018-02-14T20:07:33.157Z,15.30
2018-02-14T20:09:59.772Z,15.40
2018-02-14T20:12:27.254Z,15.23
2018-02-14T20:14:53.992Z,14.80
2018-02-14T20:17:20.639Z,15.60
2018-02-14T20:19:47.256Z,14.18
2018-02-14T20:22:13.926Z,14.63
2018-02-14T20:24:40.600Z,14.95
2018-02-14T20:27:07.989Z,15.77
2018-02-14T20:29:34.610Z,14.70
2018-02-14T20:32:02.219Z,15.15
2018-02-14T20:34:28.967Z,15.88
2018-02-14T20:36:56.336Z,14.93
2018-02-14T20:39:23.058Z,14.82
2018-02-14T20:41:49.685Z,15.32
2018-02-14T20:44:16.310Z,13.43
2018-02-14T20:46:42.958Z,13.52
2018-02-14T20:49:09.587Z,14.25
2018-02-14T20:51:36.210Z,14.75
2018-02-14T20:54:02.818Z,14.93
2018-02-14T20:56:30.171Z,14.00
2018-02-14T20:58:56.782Z,13.38
2018-02-14T21:01:23.423Z,13.40
2018-02-14T21:03:50.010Z,12.43
2018-02-14T21:06:16.638Z,12.77
2018-02-14T21:08:43.284Z,12.95
2018-02-14T21:11:09.908Z,12.18
2018-02-14T21:13:37.222Z,13.15
2018-02-14T21:16:03.842Z,12.10
2018-02-14T21:18:30.832Z,11.57
2018-02-14T21:20:58.217Z,10.60
2018-02-14T21:23:24.837Z,9.80
2018-02-14T21:25:51.502Z,10.63
2018-02-14T21:28:18.126Z,10.55
2018-02-14T21:30:44.746Z,9.13
2018-02-14T21:33:11.346Z,10.00
2018-02-14T21:35:37.966Z,10.75
2018-02-14T21:38:04.665Z,10.23
2018-02-14T21:40:32.015Z,10.10
2018-02-14T21:42:58.687Z,10.15
2018-02-14T21:45:25.327Z,9.35
2018-02-14T21:47:52.194Z,9.18
2018-02-14T21:50:19.577Z,10.15
2018-02-14T21:52:46.973Z,9.40
2018-02-14T21:55:13.631Z,9.25
2018-02-14T21:57:40.246Z,9.40
2018-02-14T22:00:06.858Z,8.35
2018-02-14T22:02:33.449Z,9.02
2018-02-14T22:05:00.099Z,7.65
2018-02-14T22:07:26.678Z,10.05
2018-02-14T22:09:53.384Z,9.57
2018-02-14T22:12:19.962Z,7.85
2018-02-14T22:14:46.538Z,7.65
2018-02-14T22:17:13.232Z,7.37
2018-02-14T22:19:39.863Z,7.93
2018-02-14T22:22:06.532Z,6.70
2018-02-14T22:24:33.109Z,6.95
2018-02-14T22:26:59.702Z,6.55
2018-02-14T22:29:27.095Z,6.80
2018-02-14T22:31:53.741Z,7.37
2018-02-14T22:34:20.402Z,6.68
2018-02-14T22:36:47.798Z,6.20
2018-02-14T22:39:14.403Z,6.80
2018-02-14T22:41:41.090Z,6.68
2018-02-14T22:44:07.689Z,5.78
2018-02-14T22:46:34.275Z,6.93
2018-02-14T22:49:01.683Z,6.93
2018-02-14T22:51:28.280Z,6.70
2018-02-14T22:53:54.919Z,6.10
2018-02-14T22:56:21.644Z,6.62
2018-02-14T22:58:48.306Z,6.60
2018-02-14T23:01:14.937Z,6.80
2018-02-14T23:03:41.577Z,5.95
2018-02-14T23:06:08.932Z,6.45
2018-02-14T23:08:35.539Z,5.95
2018-02-14T23:11:02.146Z,6.40
2018-02-14T23:13:28.762Z,6.35
2018-02-14T23:15:55.386Z,5.75
2018-02-14T23:18:22.007Z,6.50
2018-02-14T23:20:48.589Z,6.57
2018-02-14T23:23:15.199Z,7.00
2018-02-14T23:25:41.800Z,6.20
2018-02-14T23:28:08.423Z,6.45
2018-02-14T23:30:35.072Z,5.95
2018-02-14T23:33:01.674Z,7.70
2018-02-14T23:35:28.302Z,6.62
2018-02-14T23:37:54.927Z,7.05
2018-02-14T23:40:22.339Z,6.35
2018-02-14T23:42:48.963Z,6.50
2018-02-14T23:45:15.578Z,6.22
2018-02-14T23:47:42.198Z,5.80
2018-02-14T23:50:08.810Z,7.10
2018-02-14T23:52:36.239Z,6.22
2018-02-14T23:55:02.865Z,6.55
2018-02-14T23:57:29.442Z,6.68
2018-02-14T23:59:56.797Z,6.18
